Time;durP1;ratioP1;P1;durP2;ratioP2;P2;SDS_P1;SDS_P2;PMS_P1;PMS_P2;Temp;Humidity;BMP_temperature;BMP_pressure;BME280_temperature;BME280_humidity;BME280_pressure;Samples;Min_cycle;Max_cycle;Signal;HPM_P1;HPM_P2
2022/08/09 00:02:19;;;;;;;4.1;3.7;;;;;;;16.27;81.29492;943.9041;;;;
2022/08/09 00:04:49;;;;;;;4.2;3.8;;;;;;;15.94;82.74707;943.9084;;;;
2022/08/09 00:07:13;;;;;;;4.3;3.8;;;;;;;15.86;83.34668;943.8942;;;;
2022/08/09 00:09:41;;;;;;;4.2;3.8;;;;;;;15.97;82.88281;943.9156;;;;
2022/08/09 00:12:06;;;;;;;3.8;3.5;;;;;;;15.9;83.04297;943.9093;;;;
2022/08/09 00:14:32;;;;;;;5.3;4.1;;;;;;;15.99;82.52637;943.861;;;;
2022/08/09 00:16:57;;;;;;;6.5;4.1;;;;;;;16.06;82.27441;943.9246;;;;
2022/08/09 00:19:25;;;;;;;5;4;;;;;;;16.1;81.83008;943.9509;;;;
2022/08/09 00:21:51;;;;;;;6.3;4.2;;;;;;;16.07;81.85742;943.9156;;;;
2022/08/09 00:24:17;;;;;;;6.7;4.3;;;;;;;15.95;82.39453;943.959;;;;
2022/08/09 00:26:42;;;;;;;4.3;3.9;;;;;;;15.97;82.39551;943.8867;;;;
2022/08/09 00:29:09;;;;;;;5.8;3.9;;;;;;;15.99;82.13379;943.8617;;;;
2022/08/09 00:31:34;;;;;;;4.8;4.2;;;;;;;15.95;82.48535;943.8956;;;;
2022/08/09 00:34:01;;;;;;;5;4;;;;;;;15.96;82.2207;943.9059;;;;
2022/08/09 00:36:26;;;;;;;6.6;3.9;;;;;;;16.02;82.04785;943.8756;;;;
2022/08/09 00:38:53;;;;;;;4.9;3.9;;;;;;;15.98;82.16797;943.8625;;;;
2022/08/09 00:41:21;;;;;;;5;4.1;;;;;;;16.04;81.90039;943.8683;;;;
2022/08/09 00:43:44;;;;;;;8.5;3.9;;;;;;;15.95;82.0127;943.8834;;;;
2022/08/09 00:46:10;;;;;;;5;4;;;;;;;15.96;81.93164;943.9116;;;;
2022/08/09 00:48:36;;;;;;;4.2;3.7;;;;;;;15.88;82.02051;943.8981;;;;
2022/08/09 00:51:02;;;;;;;4.1;3.7;;;;;;;15.87;82.27344;943.9881;;;;
2022/08/09 00:53:26;;;;;;;3.8;3.5;;;;;;;15.76;82.36621;943.9719;;;;
2022/08/09 00:55:56;;;;;;;4;3.7;;;;;;;15.69;82.83984;943.9833;;;;
2022/08/09 00:58:24;;;;;;;4.3;3.9;;;;;;;15.62;83.23242;943.9624;;;;
2022/08/09 01:00:49;;;;;;;4.3;4;;;;;;;15.58;83.37402;943.9394;;;;
2022/08/09 01:03:14;;;;;;;4.5;3.9;;;;;;;15.53;83.79102;943.8864;;;;
2022/08/09 01:05:42;;;;;;;4.1;3.7;;;;;;;15.52;83.8125;943.9602;;;;
2022/08/09 01:08:07;;;;;;;4.1;3.7;;;;;;;15.52;83.72168;943.9434;;;;
2022/08/09 01:10:32;;;;;;;4.1;3.7;;;;;;;15.6;83.36621;943.9863;;;;
2022/08/09 01:12:58;;;;;;;4.9;4.2;;;;;;;15.61;83.22852;943.9934;;;;
2022/08/09 01:15:23;;;;;;;4.6;4.1;;;;;;;15.42;84.0957;944.0092;;;;
2022/08/09 01:17:48;;;;;;;3.9;3.6;;;;;;;15.42;84.07227;943.9908;;;;
2022/08/09 01:20:13;;;;;;;4.4;3.9;;;;;;;15.31;84.58105;944.0041;;;;
2022/08/09 01:22:39;;;;;;;4;3.6;;;;;;;15.26;85.1123;943.9833;;;;
2022/08/09 01:25:04;;;;;;;4.7;4;;;;;;;15.21;85.14063;943.9042;;;;
2022/08/09 01:27:29;;;;;;;4.7;4.2;;;;;;;15.23;85.02637;943.9045;;;;
2022/08/09 01:29:54;;;;;;;4.1;3.7;;;;;;;15.16;85.15234;943.8978;;;;
2022/08/09 01:32:19;;;;;;;4.4;3.9;;;;;;;15.11;85.4541;943.9275;;;;
2022/08/09 01:34:45;;;;;;;4.9;4;;;;;;;15.07;85.67578;943.9619;;;;
2022/08/09 01:37:10;;;;;;;4.9;4.3;;;;;;;15.02;85.88379;943.9426;;;;
2022/08/09 01:39:35;;;;;;;4.4;4;;;;;;;15.01;85.85938;943.9872;;;;
2022/08/09 01:42:00;;;;;;;4.4;4;;;;;;;15.01;85.98828;944.0016;;;;
2022/08/09 01:44:25;;;;;;;5.8;4;;;;;;;14.93;86.3291;943.9646;;;;
2022/08/09 01:46:52;;;;;;;5.8;4.6;;;;;;;14.65;87.86523;943.9163;;;;
2022/08/09 01:49:17;;;;;;;5.6;5;;;;;;;14.53;88.7627;943.8828;;;;
2022/08/09 01:51:46;;;;;;;5;4.6;;;;;;;14.47;89.02637;943.8233;;;;
2022/08/09 01:54:11;;;;;;;7.8;5.1;;;;;;;14.49;89.16895;943.9172;;;;
2022/08/09 01:56:36;;;;;;;4.8;4.3;;;;;;;14.56;88.78027;943.9191;;;;
2022/08/09 01:59:03;;;;;;;4.8;4.1;;;;;;;14.65;87.86523;943.8987;;;;
2022/08/09 02:01:28;;;;;;;5.8;4.4;;;;;;;14.65;88.00293;943.9011;;;;
2022/08/09 02:03:53;;;;;;;5.7;4.3;;;;;;;14.74;87.26074;943.9559;;;;
2022/08/09 02:07:07;;;;;;;5.2;4;;;;;;;14.79;86.87793;943.9175;;;;
2022/08/09 02:08:46;;;;;;;4.4;4;;;;;;;14.85;86.55762;943.9131;;;;
2022/08/09 02:11:11;;;;;;;4.4;4;;;;;;;14.86;86.43066;943.926;;;;
2022/08/09 02:13:38;;;;;;;4.7;4.2;;;;;;;14.87;86.19238;943.9564;;;;
2022/08/09 02:16:03;;;;;;;4.6;3.8;;;;;;;14.99;85.43066;944.0064;;;;
2022/08/09 02:18:30;;;;;;;4.6;4.2;;;;;;;14.98;85.4043;943.9711;;;;
2022/08/09 02:20:55;;;;;;;4.4;3.9;;;;;;;15;84.93652;943.9752;;;;
2022/08/09 02:23:20;;;;;;;3.9;3.5;;;;;;;14.9;85.25195;943.9702;;;;
2022/08/09 02:25:45;;;;;;;4.3;3.9;;;;;;;14.81;85.61426;943.9777;;;;
2022/08/09 02:28:12;;;;;;;4.5;4.1;;;;;;;14.75;85.80957;943.9118;;;;
2022/08/09 02:30:41;;;;;;;4.2;3.9;;;;;;;14.66;86.06836;943.9003;;;;
2022/08/09 02:33:06;;;;;;;5.5;4.3;;;;;;;14.56;86.55566;943.931;;;;
2022/08/09 02:35:32;;;;;;;4.5;4;;;;;;;14.56;86.78613;943.9158;;;;
2022/08/09 02:37:57;;;;;;;4.7;4.3;;;;;;;14.56;86.70605;943.8997;;;;
2022/08/09 02:40:25;;;;;;;5.4;4.6;;;;;;;14.59;86.52832;943.9247;;;;
2022/08/09 02:42:50;;;;;;;5.7;3.8;;;;;;;14.61;86.32324;943.9111;;;;
2022/08/09 02:45:17;;;;;;;4.6;4.2;;;;;;;14.44;87.14355;943.913;;;;
2022/08/09 02:47:47;;;;;;;4.9;4.4;;;;;;;14.42;87.2207;943.8381;;;;
2022/08/09 02:50:12;;;;;;;5.4;4.2;;;;;;;14.34;87.68652;943.928;;;;
2022/08/09 02:52:42;;;;;;;4.2;3.9;;;;;;;14.42;87.16309;943.8806;;;;
2022/08/09 02:55:07;;;;;;;4.6;4.2;;;;;;;14.44;86.99219;943.8785;;;;
2022/08/09 02:57:32;;;;;;;4.7;4.2;;;;;;;14.43;87.11816;943.8369;;;;
2022/08/09 02:59:59;;;;;;;4.7;4.3;;;;;;;14.41;87.37793;943.8321;;;;
2022/08/09 03:02:25;;;;;;;5.2;4.7;;;;;;;14.43;87.2334;943.9014;;;;
2022/08/09 03:04:54;;;;;;;5.2;4.7;;;;;;;14.53;86.67773;943.8075;;;;
2022/08/09 03:07:21;;;;;;;5.1;4.5;;;;;;;14.54;86.41406;943.8845;;;;
2022/08/09 03:09:47;;;;;;;6.2;4.5;;;;;;;14.58;86.375;943.8517;;;;
2022/08/09 03:12:14;;;;;;;4.6;4.2;;;;;;;14.48;87.12793;943.8962;;;;
2022/08/09 03:14:40;;;;;;;5.3;4.8;;;;;;;14.33;87.62695;943.8406;;;;
2022/08/09 03:17:07;;;;;;;4.5;4.1;;;;;;;14.14;88.61328;943.91;;;;
2022/08/09 03:19:37;;;;;;;5.1;4.6;;;;;;;14.29;88.10352;943.9207;;;;
2022/08/09 03:22:02;;;;;;;7.1;4.6;;;;;;;14.4;87.33008;943.8505;;;;
2022/08/09 03:24:27;;;;;;;7.6;4.8;;;;;;;14.45;86.90332;943.8521;;;;
2022/08/09 03:26:54;;;;;;;4.5;4.1;;;;;;;14.48;86.64355;943.8555;;;;
2022/08/09 03:29:19;;;;;;;5.2;4.2;;;;;;;14.32;87.25586;943.9143;;;;
2022/08/09 03:31:48;;;;;;;6.2;4.7;;;;;;;14.05;88.80176;943.8992;;;;
2022/08/09 03:34:13;;;;;;;6;5.4;;;;;;;14;89.19531;943.9042;;;;
2022/08/09 03:36:41;;;;;;;5.2;4.7;;;;;;;13.97;89.49902;943.88;;;;
2022/08/09 03:39:06;;;;;;;5;4.6;;;;;;;13.96;89.35938;943.908;;;;
2022/08/09 03:41:35;;;;;;;5.6;5;;;;;;;14.06;89.08203;943.9072;;;;
2022/08/09 03:44:00;;;;;;;5.4;4.5;;;;;;;14.18;88.21973;943.903;;;;
2022/08/09 03:46:26;;;;;;;4.6;3.9;;;;;;;14.15;88.17969;943.9101;;;;
2022/08/09 03:48:51;;;;;;;4.3;3.9;;;;;;;14.26;87.54492;943.9525;;;;
2022/08/09 03:51:16;;;;;;;5.9;4.2;;;;;;;14.31;86.94531;943.9792;;;;
2022/08/09 03:53:42;;;;;;;4.7;4.2;;;;;;;14.17;87.53809;943.9774;;;;
2022/08/09 03:56:10;;;;;;;5.5;4.3;;;;;;;14.18;87.38867;944.0031;;;;
2022/08/09 03:58:35;;;;;;;5.3;4.1;;;;;;;14.06;87.63184;944.0186;;;;
2022/08/09 04:01:02;;;;;;;4.5;4.1;;;;;;;13.91;88.5791;944.0134;;;;
2022/08/09 04:03:34;;;;;;;7.7;4.4;;;;;;;13.95;88.27539;944.0769;;;;
2022/08/09 04:05:59;;;;;;;4.5;4.1;;;;;;;13.84;88.98047;944.1316;;;;
2022/08/09 04:08:28;;;;;;;5;4.1;;;;;;;13.81;89.25879;944.1102;;;;
2022/08/09 04:10:53;;;;;;;5;4.5;;;;;;;13.73;89.59863;944.0472;;;;
2022/08/09 04:13:22;;;;;;;5.3;4.8;;;;;;;13.81;89.39844;944.0878;;;;
2022/08/09 04:15:47;;;;;;;6.8;4.5;;;;;;;13.88;88.89355;944.0948;;;;
2022/08/09 04:18:16;;;;;;;4.6;4.1;;;;;;;13.9;88.70215;944.0909;;;;
2022/08/09 04:20:41;;;;;;;6.2;4.5;;;;;;;13.85;89.30371;944.0731;;;;
2022/08/09 04:23:08;;;;;;;4.6;4.2;;;;;;;13.9;89.12793;944.0405;;;;
2022/08/09 04:25:33;;;;;;;4.7;4.2;;;;;;;13.76;89.64258;944.0154;;;;
2022/08/09 04:27:58;;;;;;;5.1;4.6;;;;;;;13.67;90.46094;944.01;;;;
2022/08/09 04:30:26;;;;;;;5.3;4.4;;;;;;;13.78;90.05859;944.0403;;;;
2022/08/09 04:32:51;;;;;;;5.6;4.7;;;;;;;13.76;90.03125;944.0338;;;;
2022/08/09 04:35:19;;;;;;;4.8;4.3;;;;;;;13.84;90.10742;944.0291;;;;
2022/08/09 04:37:50;;;;;;;4.8;4.3;;;;;;;14;89.19531;944.0787;;;;
2022/08/09 04:40:15;;;;;;;4.8;4.3;;;;;;;14.1;88.64063;944.1133;;;;
2022/08/09 04:42:43;;;;;;;4.7;4.2;;;;;;;14.03;89.08594;944.084;;;;
2022/08/09 04:45:08;;;;;;;4.7;4.3;;;;;;;14.1;89.13574;944.1333;;;;
2022/08/09 04:47:36;;;;;;;4.4;4;;;;;;;14.18;89.05762;944.1128;;;;
2022/08/09 04:50:01;;;;;;;5.2;4.4;;;;;;;14.18;88.60938;944.1233;;;;
2022/08/09 04:52:28;;;;;;;8.5;5.4;;;;;;;14.16;88.61719;944.1295;;;;
2022/08/09 04:54:53;;;;;;;5;4.6;;;;;;;14.23;88.02148;944.1255;;;;
2022/08/09 04:57:21;;;;;;;6.9;4.7;;;;;;;14.15;88.05273;944.0647;;;;
2022/08/09 04:59:46;;;;;;;7.1;4.7;;;;;;;14.11;88.22559;944.05;;;;
2022/08/09 05:02:15;;;;;;;4.6;4.1;;;;;;;14;88.6543;944.1556;;;;
2022/08/09 05:04:45;;;;;;;7.6;4.3;;;;;;;14.01;88.59863;944.1637;;;;
2022/08/09 05:07:10;;;;;;;4.9;4.5;;;;;;;14.01;88.56445;944.1189;;;;
2022/08/09 05:09:37;;;;;;;6.3;4.8;;;;;;;14.03;88.45117;944.1376;;;;
2022/08/09 05:12:02;;;;;;;5.5;4.3;;;;;;;14.02;88.53223;944.1961;;;;
2022/08/09 05:14:30;;;;;;;4.9;4.1;;;;;;;14.19;88.29004;944.1891;;;;
2022/08/09 05:16:58;;;;;;;6.9;4.5;;;;;;;14.27;87.70605;944.2217;;;;
2022/08/09 05:19:22;;;;;;;8;4.7;;;;;;;14.31;87.71484;944.1962;;;;
2022/08/09 05:21:50;;;;;;;7.1;4.9;;;;;;;14.35;87.48242;944.2461;;;;
2022/08/09 05:24:15;;;;;;;8.8;5;;;;;;;14.36;87.32129;944.2494;;;;
2022/08/09 05:26:45;;;;;;;5.4;4.9;;;;;;;14.49;86.99121;944.3123;;;;
2022/08/09 05:29:18;;;;;;;7.2;5.2;;;;;;;14.64;86.3877;944.3075;;;;
2022/08/09 05:31:42;;;;;;;5.7;5.1;;;;;;;15.05;87.74902;944.2731;;;;
2022/08/09 05:34:09;;;;;;;7;3.7;;;;;;;16.38;79.97461;944.2726;;;;
2022/08/09 05:36:34;;;;;;;5.1;3.1;;;;;;;17.85;73.58887;944.2393;;;;
2022/08/09 05:39:04;;;;;;;3.8;3.1;;;;;;;19.27;68.69043;944.2353;;;;
2022/08/09 05:41:35;;;;;;;3.1;2.8;;;;;;;20.33;64.79297;944.2495;;;;
2022/08/09 05:44:06;;;;;;;3.2;2.8;;;;;;;21.37;59.47754;944.2845;;;;
2022/08/09 05:46:34;;;;;;;3.2;2.6;;;;;;;21.84;57.60742;944.2378;;;;
2022/08/09 05:48:59;;;;;;;2.9;2.6;;;;;;;22.15;56.66309;944.2608;;;;
2022/08/09 05:51:26;;;;;;;2.5;2.2;;;;;;;22.7;55.34863;944.1744;;;;
2022/08/09 05:53:51;;;;;;;2.8;2.1;;;;;;;23.14;53.75781;944.1992;;;;
2022/08/09 05:56:18;;;;;;;2.5;2.3;;;;;;;24.1;51.24707;944.1994;;;;
2022/08/09 05:58:43;;;;;;;2.5;2.3;;;;;;;24.16;50.63086;944.1834;;;;
2022/08/09 06:01:09;;;;;;;3.9;2.4;;;;;;;24.48;50.10059;944.2094;;;;
2022/08/09 06:03:34;;;;;;;2.6;2.4;;;;;;;24.66;49.39063;944.1558;;;;
2022/08/09 06:06:03;;;;;;;2.2;2;;;;;;;24.77;48.4834;944.1658;;;;
2022/08/09 06:08:28;;;;;;;2.9;2.5;;;;;;;24.76;48.84668;944.1541;;;;
2022/08/09 06:10:56;;;;;;;4;2.3;;;;;;;24.68;48.80273;944.1422;;;;
2022/08/09 06:13:21;;;;;;;3.4;2.4;;;;;;;25.6;47.73438;944.1381;;;;
2022/08/09 06:15:52;;;;;;;2.7;2;;;;;;;26.19;46.43652;944.122;;;;
2022/08/09 06:18:20;;;;;;;2.2;2;;;;;;;26.79;45.14746;944.0605;;;;
2022/08/09 06:20:45;;;;;;;2.1;1.9;;;;;;;26.86;45.25;944.1004;;;;
2022/08/09 06:23:10;;;;;;;2.7;1.9;;;;;;;26.91;44.87598;944.142;;;;
2022/08/09 06:25:37;;;;;;;2;1.8;;;;;;;27.75;43.52344;944.1133;;;;
2022/08/09 06:28:02;;;;;;;1.9;1.6;;;;;;;28.01;41.71875;944.123;;;;
2022/08/09 06:30:29;;;;;;;1.9;1.8;;;;;;;28.09;41.21582;944.1298;;;;
2022/08/09 06:32:54;;;;;;;2.6;1.6;;;;;;;28.18;41.47266;944.1206;;;;
2022/08/09 06:35:22;;;;;;;1.6;1.5;;;;;;;27.49;41.56348;944.1234;;;;
2022/08/09 06:37:47;;;;;;;1.7;1.6;;;;;;;26.75;43.33203;944.1245;;;;
2022/08/09 06:40:14;;;;;;;3.1;2;;;;;;;27.14;43.32129;944.2012;;;;
2022/08/09 06:42:39;;;;;;;2.7;1.7;;;;;;;28.02;42.24316;944.1534;;;;
2022/08/09 06:45:07;;;;;;;1.7;1.6;;;;;;;28.59;42.16504;944.1604;;;;
2022/08/09 06:47:33;;;;;;;2.2;1.7;;;;;;;29.73;39.82617;944.1177;;;;
2022/08/09 06:50:01;;;;;;;2.3;1.9;;;;;;;28.75;41.77539;944.1627;;;;
2022/08/09 06:52:26;;;;;;;1.9;1.8;;;;;;;30.51;38.36719;944.1685;;;;
2022/08/09 06:54:53;;;;;;;2.5;1.7;;;;;;;29.57;39.70605;944.1472;;;;
2022/08/09 06:57:18;;;;;;;3.1;1.8;;;;;;;28.77;39.08887;944.1895;;;;
2022/08/09 06:59:45;;;;;;;2.6;1.6;;;;;;;28.88;39.9541;944.158;;;;
2022/08/09 07:02:10;;;;;;;1.8;1.7;;;;;;;28.29;41.15039;944.1635;;;;
2022/08/09 07:04:38;;;;;;;3;1.8;;;;;;;30.23;36.96973;944.2338;;;;
2022/08/09 07:07:04;;;;;;;3.3;1.8;;;;;;;30.84;36.05176;944.1779;;;;
2022/08/09 07:09:31;;;;;;;2.1;1.9;;;;;;;29.2;38.62598;944.1813;;;;
2022/08/09 07:11:56;;;;;;;1.9;1.6;;;;;;;29.64;38.45996;944.1356;;;;
2022/08/09 07:14:22;;;;;;;3.1;2;;;;;;;29.65;37.4834;944.1597;;;;
2022/08/09 07:16:53;;;;;;;2.6;1.9;;;;;;;29.14;38.77441;944.1471;;;;
2022/08/09 07:19:23;;;;;;;1.8;1.6;;;;;;;29.37;38.0918;944.1036;;;;
2022/08/09 07:21:49;;;;;;;2.5;1.6;;;;;;;30.92;37.38574;944.1209;;;;
2022/08/09 07:24:12;;;;;;;2.6;1.9;;;;;;;31.24;35.96387;944.1334;;;;
2022/08/09 07:26:38;;;;;;;1.8;1.7;;;;;;;31.77;35.27637;944.1238;;;;
2022/08/09 07:29:04;;;;;;;2.1;1.5;;;;;;;31.17;36.52148;944.1883;;;;
2022/08/09 07:31:31;;;;;;;1.9;1.8;;;;;;;32.42;34.70215;944.1605;;;;
2022/08/09 07:33:56;;;;;;;2.3;1.8;;;;;;;32.21;35.04688;944.1406;;;;
2022/08/09 07:37:02;;;;;;;1.7;1.6;;;;;;;32.29;34.74023;944.1716;;;;
2022/08/09 07:39:31;;;;;;;3.9;1.7;;;;;;;31.92;35.82617;944.0868;;;;
2022/08/09 07:41:56;;;;;;;2.7;2.1;;;;;;;31.52;37.41113;944.1337;;;;
2022/08/09 07:44:25;;;;;;;2;1.8;;;;;;;30.83;37.49805;944.1608;;;;
2022/08/09 07:46:50;;;;;;;2.7;1.9;;;;;;;30.05;40.75098;944.1583;;;;
2022/08/09 07:49:17;;;;;;;1.6;1.5;;;;;;;30.75;37.76563;944.1525;;;;
2022/08/09 07:51:42;;;;;;;1.9;1.8;;;;;;;32.44;33.54004;944.1161;;;;
2022/08/09 07:54:07;;;;;;;1.9;1.7;;;;;;;31.91;36.17285;944.1202;;;;
2022/08/09 07:56:35;;;;;;;1.6;1.5;;;;;;;32.28;34.78809;944.1273;;;;
2022/08/09 07:59:00;;;;;;;2.1;1.7;;;;;;;32.74;33.69531;944.0655;;;;
2022/08/09 08:01:25;;;;;;;1.9;1.7;;;;;;;32.18;34.46777;944.1351;;;;
2022/08/09 08:03:55;;;;;;;4.2;1.9;;;;;;;30.5;39.32129;944.1158;;;;
2022/08/09 08:06:24;;;;;;;2.5;1.7;;;;;;;30.85;40.69238;944.0608;;;;
2022/08/09 08:08:49;;;;;;;1.7;1.6;;;;;;;30.43;39.36426;944.071;;;;
2022/08/09 08:11:17;;;;;;;2.6;1.9;;;;;;;30.7;38.62207;944.0559;;;;
2022/08/09 08:13:42;;;;;;;1.8;1.5;;;;;;;32.87;34.55664;944.0815;;;;
2022/08/09 08:16:13;;;;;;;2.3;1.8;;;;;;;33.19;33.12695;944.0569;;;;
2022/08/09 08:18:41;;;;;;;1.7;1.6;;;;;;;33.35;33.35449;944.0441;;;;
2022/08/09 08:21:06;;;;;;;1.5;1.4;;;;;;;33.86;31.69629;944.0974;;;;
2022/08/09 08:23:34;;;;;;;1.5;1.4;;;;;;;34.76;30.8418;944.1231;;;;
2022/08/09 08:25:59;;;;;;;1.5;1.3;;;;;;;33.36;33.03125;944.0892;;;;
2022/08/09 08:28:24;;;;;;;2.5;1.6;;;;;;;32;37.10352;944.0812;;;;
2022/08/09 08:30:51;;;;;;;1.7;1.6;;;;;;;33.04;34.18555;944.0517;;;;
2022/08/09 08:33:16;;;;;;;1.5;1.4;;;;;;;34.09;32.61523;944.0644;;;;
2022/08/09 08:35:43;;;;;;;2.6;1.5;;;;;;;34.07;32.50488;944.0629;;;;
2022/08/09 08:38:08;;;;;;;2.6;1.7;;;;;;;32.75;36.18066;944.0681;;;;
2022/08/09 08:40:39;;;;;;;2;1.7;;;;;;;33.25;34.83789;944.0437;;;;
2022/08/09 08:43:09;;;;;;;3.1;1.8;;;;;;;34.53;32.22461;944.1434;;;;
2022/08/09 08:45:34;;;;;;;1.8;1.7;;;;;;;33.51;34.50977;944.0903;;;;
2022/08/09 08:47:59;;;;;;;1.6;1.4;;;;;;;34.91;30.5752;944.1295;;;;
2022/08/09 08:50:28;;;;;;;1.5;1.4;;;;;;;34.18;31.83789;944.1086;;;;
2022/08/09 08:52:53;;;;;;;1.8;1.5;;;;;;;34.72;31.78027;944.0828;;;;
2022/08/09 08:55:19;;;;;;;2.3;1.6;;;;;;;34.26;31.95313;944.0958;;;;
2022/08/09 08:57:44;;;;;;;2.1;1.6;;;;;;;35.13;31.14453;944.118;;;;
2022/08/09 09:00:15;;;;;;;1.9;1.8;;;;;;;34.85;30.81152;944.0972;;;;
2022/08/09 09:02:45;;;;;;;1.7;1.6;;;;;;;33.89;32.87793;944.1136;;;;
2022/08/09 09:05:11;;;;;;;1.6;1.5;;;;;;;34.86;30.53516;944.0898;;;;
2022/08/09 09:07:35;;;;;;;2;1.8;;;;;;;32.72;35.13379;944.1097;;;;
2022/08/09 09:10:01;;;;;;;1.5;1.4;;;;;;;33.9;32.5166;944.0776;;;;
2022/08/09 09:12:28;;;;;;;1.7;1.6;;;;;;;32.78;35.6543;944.0974;;;;
2022/08/09 09:14:52;;;;;;;1.6;1.5;;;;;;;31.83;36.42969;944.0812;;;;
2022/08/09 09:17:17;;;;;;;3;2;;;;;;;32.76;35.8457;944.1113;;;;
2022/08/09 09:19:43;;;;;;;4.1;1.7;;;;;;;32.21;36.55762;944.108;;;;
2022/08/09 09:22:08;;;;;;;2.4;1.8;;;;;;;31.98;38.49219;944.0786;;;;
2022/08/09 09:24:35;;;;;;;2.1;1.9;;;;;;;32;36.86426;944.0838;;;;
2022/08/09 09:27:00;;;;;;;2.1;1.9;;;;;;;29.22;44.1543;944.09;;;;
2022/08/09 09:29:26;;;;;;;2.3;1.9;;;;;;;29.44;42.81641;944.0723;;;;
2022/08/09 09:31:52;;;;;;;2.2;2;;;;;;;27.91;45.2959;944.0847;;;;
2022/08/09 09:34:18;;;;;;;2.2;2;;;;;;;28.11;45.34082;944.0208;;;;
2022/08/09 09:36:43;;;;;;;2.5;1.9;;;;;;;29.22;43.21191;944.017;;;;
2022/08/09 09:39:10;;;;;;;2.2;1.8;;;;;;;28.94;44.0791;944.0341;;;;
2022/08/09 09:41:35;;;;;;;1.9;1.8;;;;;;;29.96;40.24121;944.0367;;;;
2022/08/09 09:44:00;;;;;;;3.3;1.9;;;;;;;30.46;39.16211;944.0261;;;;
2022/08/09 09:46:25;;;;;;;2.2;2;;;;;;;29.98;41.06543;943.9853;;;;
2022/08/09 09:48:54;;;;;;;2;1.8;;;;;;;30.52;38.42773;943.9609;;;;
2022/08/09 09:51:19;;;;;;;3.4;2;;;;;;;29.95;41.31348;943.9733;;;;
2022/08/09 09:53:48;;;;;;;3.9;2.2;;;;;;;27.98;45.83789;943.9556;;;;
2022/08/09 09:56:14;;;;;;;2.3;1.8;;;;;;;28.42;44.55078;943.9025;;;;
2022/08/09 09:58:39;;;;;;;2.4;1.7;;;;;;;28.94;43.37695;943.8989;;;;
2022/08/09 10:01:04;;;;;;;2.1;2;;;;;;;28.61;45.21289;943.9233;;;;
2022/08/09 10:03:29;;;;;;;2;1.6;;;;;;;29.16;43.04004;943.9045;;;;
2022/08/09 10:05:54;;;;;;;2.2;2;;;;;;;28.87;42.6084;943.8394;;;;
2022/08/09 10:08:22;;;;;;;2.8;1.7;;;;;;;29.38;41.75;943.843;;;;
2022/08/09 10:10:47;;;;;;;2;1.9;;;;;;;28.05;46.7959;943.8569;;;;
2022/08/09 10:13:15;;;;;;;41.1;15.9;;;;;;;28.22;45.80176;943.8214;;;;
2022/08/09 10:15:40;;;;;;;17.5;7.2;;;;;;;29.03;43.55176;943.8557;;;;
2022/08/09 10:18:06;;;;;;;4.4;2.9;;;;;;;28.96;42.11621;943.908;;;;
2022/08/09 10:20:32;;;;;;;13.6;5.4;;;;;;;29.58;40.9707;943.8521;;;;
2022/08/09 10:22:59;;;;;;;12.2;5.9;;;;;;;30.19;39.27148;943.9048;;;;
2022/08/09 10:25:22;;;;;;;5.4;3;;;;;;;29.41;41.86035;943.8758;;;;
2022/08/09 10:27:51;;;;;;;3.7;2.7;;;;;;;29.04;41.25488;943.8544;;;;
2022/08/09 10:30:23;;;;;;;4.2;2.4;;;;;;;29.89;38.79199;943.8145;;;;
2022/08/09 10:32:54;;;;;;;4.8;2.7;;;;;;;29.57;41.88672;943.8345;;;;
2022/08/09 10:35:16;;;;;;;1.8;1.5;;;;;;;30.05;38.72168;943.7997;;;;
2022/08/09 10:37:42;;;;;;;1.7;1.5;;;;;;;29.17;43.94629;943.8295;;;;
2022/08/09 10:40:07;;;;;;;1.7;1.6;;;;;;;30.43;38.03711;943.808;;;;
2022/08/09 10:42:32;;;;;;;1.8;1.7;;;;;;;30.9;36.91699;943.73;;;;
2022/08/09 10:44:58;;;;;;;1.9;1.6;;;;;;;30.08;40.12012;943.7076;;;;
2022/08/09 10:47:24;;;;;;;2.1;1.9;;;;;;;30.52;37.45996;943.7933;;;;
2022/08/09 10:49:49;;;;;;;1.8;1.4;;;;;;;31.71;35.61719;943.7119;;;;
2022/08/09 10:52:14;;;;;;;2.2;1.6;;;;;;;31.56;37.50977;943.6808;;;;
2022/08/09 10:54:42;;;;;;;1.6;1.5;;;;;;;30.4;39.51563;943.6937;;;;
2022/08/09 10:57:08;;;;;;;2.6;1.8;;;;;;;30.25;38.71484;943.6445;;;;
2022/08/09 10:59:32;;;;;;;1.7;1.4;;;;;;;30.56;37.78613;943.6794;;;;
2022/08/09 11:01:59;;;;;;;1.6;1.5;;;;;;;30.04;38.8291;943.5773;;;;
2022/08/09 11:04:26;;;;;;;5.2;1.8;;;;;;;31.32;35.73145;943.5911;;;;
2022/08/09 11:06:52;;;;;;;1.6;1.5;;;;;;;32.2;33.81055;943.5261;;;;
2022/08/09 11:09:17;;;;;;;1.7;1.6;;;;;;;31.07;38.03125;943.527;;;;
2022/08/09 11:11:42;;;;;;;1.9;1.7;;;;;;;30.53;38.57129;943.5558;;;;
2022/08/09 11:14:07;;;;;;;1.3;1.3;;;;;;;31.21;35.39941;943.5363;;;;
2022/08/09 11:16:37;;;;;;;1.7;1.6;;;;;;;31.82;33.78223;943.5178;;;;
2022/08/09 11:19:42;;;;;;;1.4;1.3;;;;;;;31.59;35.36914;943.5422;;;;
2022/08/09 11:22:08;;;;;;;1.5;1.4;;;;;;;31.28;34.5918;943.5588;;;;
2022/08/09 11:24:32;;;;;;;1.6;1.5;;;;;;;31.34;34.41602;943.5084;;;;
2022/08/09 11:26:58;;;;;;;5.6;1.6;;;;;;;31.4;35.92969;943.5223;;;;
2022/08/09 11:29:24;;;;;;;1.4;1.3;;;;;;;31.82;32.66895;943.5366;;;;
2022/08/09 11:31:49;;;;;;;1.5;1.4;;;;;;;32.38;32.26465;943.555;;;;
2022/08/09 11:34:14;;;;;;;1.6;1.5;;;;;;;32.1;33.04785;943.4241;;;;
2022/08/09 11:36:39;;;;;;;1.9;1.4;;;;;;;32.38;32.63574;943.5394;;;;
2022/08/09 11:39:06;;;;;;;1.9;1.4;;;;;;;32.11;33.65918;943.493;;;;
2022/08/09 11:41:31;;;;;;;1.7;1.4;;;;;;;31.74;33.93262;943.5122;;;;
2022/08/09 11:44:27;;;;;;;1.6;1.5;;;;;;;31.66;35.375;943.5989;;;;
2022/08/09 11:47:12;;;;;;;1.7;1.5;;;;;;;30.39;37.16309;943.572;;;;
2022/08/09 11:49:36;;;;;;;2.2;1.3;;;;;;;29.58;36.85742;943.5339;;;;
2022/08/09 11:52:02;;;;;;;2;1.2;;;;;;;29.56;36.51074;943.5258;;;;
2022/08/09 11:54:40;;;;;;;2.8;1.7;;;;;;;29.06;37.81543;943.4632;;;;
2022/08/09 11:57:35;;;;;;;2.4;1.3;;;;;;;28.19;40.86816;943.4888;;;;
2022/08/09 12:00:37;;;;;;;3;1.3;;;;;;;28.82;39.54492;943.4945;;;;
2022/08/09 12:02:57;;;;;;;1.8;1.5;;;;;;;27.65;40.73633;943.5467;;;;
2022/08/09 12:05:24;;;;;;;1.5;1.3;;;;;;;27.61;40.94531;943.5128;;;;
2022/08/09 12:07:52;;;;;;;3.1;1.5;;;;;;;27.59;40.87305;943.5386;;;;
2022/08/09 12:10:17;;;;;;;3;1.5;;;;;;;27.72;42.47559;943.4168;;;;
2022/08/09 12:12:49;;;;;;;2;1.6;;;;;;;27.61;41.44434;943.4785;;;;
2022/08/09 12:15:09;;;;;;;3.2;1.7;;;;;;;27.52;41.3291;943.4634;;;;
2022/08/09 12:17:37;;;;;;;2.7;1.5;;;;;;;27.25;41.50684;943.4731;;;;
2022/08/09 12:20:05;;;;;;;1.8;1.7;;;;;;;27.4;42.54004;943.4319;;;;
2022/08/09 12:22:34;;;;;;;2.3;1.7;;;;;;;27.27;42.07715;943.448;;;;
2022/08/09 12:25:06;;;;;;;2.2;1.6;;;;;;;27.47;40.66016;943.4369;;;;
2022/08/09 12:27:34;;;;;;;2.5;1.5;;;;;;;27.6;39.75781;943.4514;;;;
2022/08/09 12:30:00;;;;;;;3.6;1.9;;;;;;;27.44;42.60352;943.4956;;;;
2022/08/09 12:32:32;;;;;;;1.8;1.3;;;;;;;27.43;40.88184;943.4698;;;;
2022/08/09 12:35:00;;;;;;;2.6;1.5;;;;;;;27.15;43.5;943.4517;;;;
2022/08/09 12:37:25;;;;;;;2.5;1.8;;;;;;;26.93;44.25098;943.4088;;;;
2022/08/09 12:39:50;;;;;;;1.6;1.5;;;;;;;27.01;43.83105;943.3549;;;;
2022/08/09 12:42:15;;;;;;;4.1;1.8;;;;;;;26.61;44.44238;943.4033;;;;
2022/08/09 12:44:45;;;;;;;1.6;1.5;;;;;;;26.62;42.87988;943.3897;;;;
2022/08/09 12:47:10;;;;;;;1.8;1.6;;;;;;;26.48;44.82031;943.3461;;;;
2022/08/09 12:49:39;;;;;;;4.1;1.6;;;;;;;26.47;43.53027;943.4117;;;;
2022/08/09 12:52:04;;;;;;;2.5;1.6;;;;;;;26.68;43.33594;943.3438;;;;
2022/08/09 12:54:33;;;;;;;2.2;1.7;;;;;;;26.86;43.56738;943.2615;;;;
2022/08/09 12:56:58;;;;;;;1.8;1.5;;;;;;;26.97;41.98926;943.3155;;;;
2022/08/09 12:59:25;;;;;;;2.9;1.6;;;;;;;26.75;44.75195;943.3058;;;;
2022/08/09 13:01:50;;;;;;;1.6;1.4;;;;;;;26.88;42.2666;943.2322;;;;
2022/08/09 13:04:17;;;;;;;1.9;1.5;;;;;;;27.2;43.41016;943.3342;;;;
2022/08/09 13:06:42;;;;;;;1.9;1.6;;;;;;;27.21;42.33301;943.3448;;;;
2022/08/09 13:09:10;;;;;;;1.8;1.7;;;;;;;27.28;44.65234;943.3631;;;;
2022/08/09 13:11:35;;;;;;;1.8;1.6;;;;;;;27.43;42.62598;943.3658;;;;
2022/08/09 13:14:03;;;;;;;2.3;1.6;;;;;;;27.24;43.41406;943.3365;;;;
2022/08/09 13:16:27;;;;;;;2.8;2;;;;;;;27.53;40.78418;943.3089;;;;
2022/08/09 13:18:55;;;;;;;2.6;1.5;;;;;;;27.49;45.97852;943.3181;;;;
2022/08/09 13:21:23;;;;;;;1.7;1.5;;;;;;;27.4;44.21191;943.3739;;;;
2022/08/09 13:23:47;;;;;;;1.7;1.4;;;;;;;27.42;43.05176;943.2892;;;;
2022/08/09 13:26:14;;;;;;;1.6;1.4;;;;;;;27.5;42.71582;943.3078;;;;
2022/08/09 13:28:39;;;;;;;1.5;1.4;;;;;;;27.6;41.24121;943.3767;;;;
2022/08/09 13:31:06;;;;;;;1.6;1.5;;;;;;;27.68;40.34668;943.2866;;;;
2022/08/09 13:33:31;;;;;;;1.7;1.6;;;;;;;27.8;41.59277;943.3097;;;;
2022/08/09 13:35:59;;;;;;;3.6;1.7;;;;;;;27.51;42.29004;943.2778;;;;
2022/08/09 13:38:24;;;;;;;2.9;1.8;;;;;;;27.55;44.52344;943.3047;;;;
2022/08/09 13:40:50;;;;;;;3.5;1.7;;;;;;;27.55;40.01465;943.2457;;;;
2022/08/09 13:43:15;;;;;;;1.7;1.6;;;;;;;27.74;40.38867;943.2305;;;;
2022/08/09 13:45:46;;;;;;;2.1;1.7;;;;;;;27.41;41.93652;943.2539;;;;
2022/08/09 13:48:14;;;;;;;2.9;1.9;;;;;;;27.41;41.49707;943.3056;;;;
2022/08/09 13:50:39;;;;;;;1.7;1.6;;;;;;;27.48;41.08789;943.2609;;;;
2022/08/09 13:53:05;;;;;;;2.5;1.6;;;;;;;27.52;41.53125;943.2703;;;;
2022/08/09 13:55:30;;;;;;;1.8;1.5;;;;;;;27.24;41.29199;943.2561;;;;
2022/08/09 13:57:58;;;;;;;2;1.6;;;;;;;27.43;41.70117;943.2612;;;;
2022/08/09 14:00:23;;;;;;;1.9;1.6;;;;;;;27.41;42.01953;943.2114;;;;
2022/08/09 14:02:53;;;;;;;1.8;1.7;;;;;;;27.26;42.69336;943.2594;;;;
2022/08/09 14:05:18;;;;;;;3.9;1.6;;;;;;;27.47;40.75586;943.2651;;;;
2022/08/09 14:07:45;;;;;;;1.8;1.6;;;;;;;27.23;41.49219;943.2844;;;;
2022/08/09 14:10:10;;;;;;;2;1.7;;;;;;;27.31;42.93457;943.252;;;;
2022/08/09 14:12:37;;;;;;;1.7;1.6;;;;;;;27.37;43.1543;943.308;;;;
2022/08/09 14:15:03;;;;;;;2.1;1.5;;;;;;;27.34;40.2334;943.2239;;;;
2022/08/09 14:17:27;;;;;;;1.5;1.4;;;;;;;27.02;43.25098;943.1842;;;;
2022/08/09 14:19:57;;;;;;;1.9;1.6;;;;;;;27.27;42.29102;943.2465;;;;
2022/08/09 14:22:22;;;;;;;3;1.6;;;;;;;27.42;40.51367;943.2534;;;;
2022/08/09 14:24:50;;;;;;;1.5;1.4;;;;;;;27.39;42.63379;943.197;;;;